createdAt,value
2024-01-24T00:00:49.148Z,77.36
2024-01-24T00:03:51.884Z,77.40
2024-01-24T00:06:54.108Z,77.44
2024-01-24T00:09:56.566Z,77.72
2024-01-24T00:12:58.690Z,77.32
2024-01-24T00:16:01.100Z,77.74
2024-01-24T00:19:04.028Z,77.07
2024-01-24T00:22:06.746Z,77.06
2024-01-24T00:25:09.240Z,76.68
2024-01-24T00:28:13.120Z,76.42
2024-01-24T00:31:15.227Z,76.55
2024-01-24T00:34:17.793Z,77.17
2024-01-24T00:37:19.942Z,77.41
2024-01-24T00:40:23.227Z,77.11
2024-01-24T00:43:27.061Z,77.40
2024-01-24T00:46:29.492Z,77.72
2024-01-24T00:49:31.845Z,77.93
2024-01-24T00:52:34.492Z,77.98
2024-01-24T00:55:36.572Z,78.05
2024-01-24T00:58:38.906Z,78.15
2024-01-24T01:01:41.004Z,78.05
2024-01-24T01:04:44.604Z,78.23
2024-01-24T01:07:46.814Z,78.32
2024-01-24T01:10:49.272Z,78.25
2024-01-24T01:13:51.409Z,78.31
2024-01-24T01:16:54.754Z,78.39
2024-01-24T01:19:57.276Z,78.66
2024-01-24T01:22:59.628Z,78.58
2024-01-24T01:26:01.808Z,78.60
2024-01-24T01:29:04.803Z,78.41
2024-01-24T01:32:07.252Z,78.48
2024-01-24T01:35:10.651Z,78.21
2024-01-24T01:38:14.506Z,78.43
2024-01-24T01:41:16.989Z,78.26
2024-01-24T01:44:19.097Z,78.37
2024-01-24T01:47:22.608Z,78.42
2024-01-24T01:50:24.945Z,78.53
2024-01-24T01:53:27.814Z,78.71
2024-01-24T01:56:30.190Z,78.75
2024-01-24T01:59:33.049Z,78.79
2024-01-24T02:02:35.577Z,78.82
2024-01-24T02:05:39.273Z,78.85
2024-01-24T02:08:44.187Z,79.06
2024-01-24T02:11:46.321Z,79.19
2024-01-24T02:14:49.007Z,79.16
2024-01-24T02:17:51.242Z,79.35
2024-01-24T02:20:53.708Z,79.52
2024-01-24T02:23:57.766Z,79.10
2024-01-24T02:27:00.142Z,79.40
2024-01-24T02:30:02.309Z,79.28
2024-01-24T02:33:04.931Z,79.37
2024-01-24T02:36:07.269Z,79.14
2024-01-24T02:39:09.748Z,79.43
2024-01-24T02:42:11.931Z,79.73
2024-01-24T02:45:14.658Z,80.19
2024-01-24T02:48:16.966Z,80.05
2024-01-24T02:51:26.938Z,80.35
2024-01-24T02:54:29.346Z,80.70
2024-01-24T02:57:31.800Z,79.94
2024-01-24T03:00:34.038Z,80.44
2024-01-24T03:03:39.051Z,80.89
2024-01-24T03:06:41.697Z,81.09
2024-01-24T03:09:44.216Z,80.86
2024-01-24T03:12:46.345Z,80.79
2024-01-24T03:15:48.765Z,80.75
2024-01-24T03:18:52.824Z,80.75
2024-01-24T03:21:55.497Z,80.81
2024-01-24T03:24:57.704Z,80.73
2024-01-24T03:28:00.206Z,80.76
2024-01-24T03:31:03.466Z,81.19
2024-01-24T03:34:06.425Z,80.29
2024-01-24T03:37:08.700Z,80.25
2024-01-24T03:40:11.316Z,81.45
2024-01-24T03:43:13.697Z,81.27
2024-01-24T03:46:19.095Z,81.22
2024-01-24T03:49:22.909Z,81.27
2024-01-24T03:52:25.436Z,81.21
2024-01-24T03:55:27.562Z,81.58
2024-01-24T03:58:30.001Z,81.49
2024-01-24T04:01:32.416Z,81.57
2024-01-24T04:04:35.057Z,81.68
2024-01-24T04:07:37.292Z,81.66
2024-01-24T04:10:39.726Z,81.87
2024-01-24T04:13:44.170Z,81.49
2024-01-24T04:16:46.690Z,81.15
2024-01-24T04:19:48.957Z,81.30
2024-01-24T04:22:51.867Z,82.04
2024-01-24T04:25:54.054Z,81.62
2024-01-24T04:28:56.412Z,81.69
2024-01-24T04:31:59.130Z,81.69
2024-01-24T04:35:01.581Z,81.33
2024-01-24T04:38:05.024Z,81.36
2024-01-24T04:41:09.720Z,81.13
2024-01-24T04:44:11.814Z,81.03
2024-01-24T04:47:16.771Z,80.87
2024-01-24T04:50:19.893Z,80.70
2024-01-24T04:53:22.414Z,80.73
2024-01-24T04:56:24.526Z,80.53
2024-01-24T04:59:26.860Z,80.54
2024-01-24T05:02:28.911Z,80.26
2024-01-24T05:05:31.442Z,79.98
2024-01-24T05:08:33.585Z,79.73
2024-01-24T05:11:35.946Z,79.53
2024-01-24T05:14:38.088Z,79.43
2024-01-24T05:17:40.785Z,79.43
2024-01-24T05:20:43.182Z,79.37
2024-01-24T05:23:46.983Z,79.34
2024-01-24T05:26:49.783Z,79.32
2024-01-24T05:29:52.177Z,79.26
2024-01-24T05:32:56.875Z,79.23
2024-01-24T05:35:59.291Z,79.23
2024-01-24T05:39:01.407Z,79.16
2024-01-24T05:42:03.915Z,79.17
2024-01-24T05:45:06.730Z,79.16
2024-01-24T05:48:09.421Z,79.18
2024-01-24T05:51:11.947Z,79.15
2024-01-24T05:54:14.449Z,78.97
2024-01-24T05:57:16.703Z,78.82
2024-01-24T06:00:20.417Z,78.70
2024-01-24T06:03:22.930Z,78.60
2024-01-24T06:06:25.184Z,78.35
2024-01-24T06:09:28.782Z,78.15
2024-01-24T06:12:30.911Z,78.08
2024-01-24T06:15:33.396Z,77.99
2024-01-24T06:18:35.671Z,78.21
2024-01-24T06:21:38.613Z,77.89
2024-01-24T06:24:41.124Z,77.99
2024-01-24T06:27:43.636Z,78.12
2024-01-24T06:30:47.269Z,78.13
2024-01-24T06:33:49.952Z,78.32
2024-01-24T06:36:52.139Z,78.04
2024-01-24T06:39:54.569Z,78.18
2024-01-24T06:42:56.929Z,77.90
2024-01-24T06:45:59.469Z,78.05
2024-01-24T06:49:01.978Z,78.20
2024-01-24T06:52:04.540Z,78.34
2024-01-24T06:55:07.026Z,78.41
2024-01-24T06:58:10.400Z,78.76
2024-01-24T07:01:13.102Z,78.71
2024-01-24T07:04:15.760Z,78.88
2024-01-24T07:07:18.047Z,78.95
2024-01-24T07:10:20.528Z,79.12
2024-01-24T07:13:22.704Z,79.34
2024-01-24T07:16:25.086Z,79.56
2024-01-24T07:19:27.434Z,79.72
2024-01-24T07:22:29.880Z,80.10
2024-01-24T07:25:32.260Z,80.24
2024-01-24T07:28:36.240Z,80.07
2024-01-24T07:31:39.284Z,80.10
2024-01-24T07:34:42.892Z,79.97
2024-01-24T07:37:45.597Z,80.00
2024-01-24T07:40:48.123Z,80.18
2024-01-24T07:43:50.432Z,80.18
2024-01-24T07:46:53.147Z,80.26
2024-01-24T07:49:55.608Z,80.18
2024-01-24T07:52:58.415Z,80.02
2024-01-24T07:56:07.317Z,80.08
2024-01-24T07:59:18.574Z,80.12
2024-01-24T08:02:21.141Z,80.17
2024-01-24T08:05:24.928Z,80.25
2024-01-24T08:08:27.430Z,80.38
2024-01-24T08:11:30.031Z,80.24
2024-01-24T08:14:32.231Z,80.16
2024-01-24T08:17:35.852Z,80.19
2024-01-24T08:20:38.678Z,80.21
2024-01-24T08:23:47.093Z,80.36
2024-01-24T08:26:56.581Z,80.55
2024-01-24T08:30:02.004Z,80.66
2024-01-24T08:33:04.448Z,80.73
2024-01-24T08:36:06.909Z,81.00
2024-01-24T08:39:09.337Z,81.38
2024-01-24T08:42:12.254Z,81.69
2024-01-24T08:45:14.470Z,82.02
2024-01-24T08:48:18.928Z,81.96
2024-01-24T08:51:23.385Z,82.25
2024-01-24T08:54:25.843Z,82.39
2024-01-24T08:57:29.140Z,82.32
2024-01-24T09:00:31.768Z,82.21
2024-01-24T09:03:34.079Z,82.23
2024-01-24T09:06:36.530Z,82.22
2024-01-24T09:09:40.967Z,81.82
2024-01-24T09:12:45.705Z,81.52
2024-01-24T09:15:48.876Z,81.88
2024-01-24T09:18:52.698Z,81.80
2024-01-24T09:21:55.349Z,82.07
2024-01-24T09:24:57.926Z,81.95
2024-01-24T09:28:00.257Z,82.56
2024-01-24T09:31:02.968Z,83.24
2024-01-24T09:34:05.545Z,82.79
2024-01-24T09:37:08.147Z,83.17
2024-01-24T09:40:11.135Z,83.98
2024-01-24T09:43:15.038Z,83.84
2024-01-24T09:46:20.762Z,84.23
2024-01-24T09:49:23.374Z,84.42
2024-01-24T09:52:28.054Z,84.60
2024-01-24T09:55:33.152Z,84.63
2024-01-24T09:58:35.367Z,84.50
2024-01-24T10:01:40.898Z,84.76
2024-01-24T10:04:44.958Z,84.25
2024-01-24T10:07:47.860Z,84.72
2024-01-24T10:10:50.456Z,84.62
2024-01-24T10:13:56.832Z,84.89
2024-01-24T10:16:59.372Z,83.99
2024-01-24T10:20:02.135Z,84.33
2024-01-24T10:23:05.373Z,84.66
2024-01-24T10:26:09.118Z,84.13
2024-01-24T10:29:15.108Z,84.09
2024-01-24T10:32:17.311Z,84.22
2024-01-24T10:35:19.983Z,83.44
2024-01-24T10:38:25.573Z,83.34
2024-01-24T10:41:35.121Z,82.89
2024-01-24T10:44:38.768Z,82.80
2024-01-24T10:47:42.355Z,82.58
2024-01-24T10:50:45.067Z,82.53
2024-01-24T10:53:48.528Z,82.15
2024-01-24T10:56:51.825Z,81.99
2024-01-24T10:59:55.473Z,81.89
2024-01-24T11:02:58.930Z,81.66
2024-01-24T11:06:06.629Z,81.50
2024-01-24T11:09:12.547Z,81.27
2024-01-24T11:12:15.013Z,80.84
2024-01-24T11:15:17.319Z,80.52
2024-01-24T11:18:24.008Z,79.54
2024-01-24T11:21:29.139Z,79.45
2024-01-24T11:24:53.637Z,79.50
2024-01-24T11:27:58.912Z,79.61
2024-01-24T11:31:01.832Z,79.31
2024-01-24T11:34:08.121Z,79.07
2024-01-24T11:37:16.500Z,78.90
2024-01-24T11:40:18.975Z,78.82
2024-01-24T11:43:28.901Z,78.49
2024-01-24T11:46:33.050Z,78.03
2024-01-24T11:49:35.606Z,78.28
2024-01-24T11:52:37.970Z,78.18
2024-01-24T11:55:40.410Z,78.18
2024-01-24T11:58:42.731Z,77.44
2024-01-24T12:01:45.464Z,77.78
2024-01-24T12:04:54.556Z,77.77
2024-01-24T12:07:56.845Z,77.53
2024-01-24T12:11:00.081Z,77.85
2024-01-24T12:14:03.180Z,77.84
2024-01-24T12:17:06.364Z,77.77
2024-01-24T12:20:10.652Z,76.96
2024-01-24T12:23:14.439Z,77.51
2024-01-24T12:26:16.780Z,77.67
2024-01-24T12:29:19.907Z,77.10
2024-01-24T12:32:22.626Z,77.30
2024-01-24T12:35:25.978Z,76.27
2024-01-24T12:38:28.082Z,76.33
2024-01-24T12:41:31.881Z,76.41
2024-01-24T12:44:35.852Z,76.31
2024-01-24T12:47:39.109Z,76.07
2024-01-24T12:50:41.481Z,75.75
2024-01-24T12:53:44.313Z,76.01
2024-01-24T12:56:48.522Z,76.09
2024-01-24T12:59:51.511Z,76.43
2024-01-24T13:02:54.274Z,76.57
2024-01-24T13:05:57.039Z,76.60
2024-01-24T13:08:59.697Z,76.70
2024-01-24T13:12:02.382Z,76.99
2024-01-24T13:15:05.988Z,77.47
2024-01-24T13:18:09.389Z,78.31
2024-01-24T13:21:11.906Z,78.57
2024-01-24T13:24:14.412Z,78.38
2024-01-24T13:27:16.666Z,78.63
2024-01-24T13:30:19.224Z,78.55
2024-01-24T13:33:21.561Z,78.53
2024-01-24T13:36:24.500Z,78.11
2024-01-24T13:39:26.806Z,79.85
2024-01-24T13:42:29.390Z,81.24
2024-01-24T13:45:32.044Z,81.70
2024-01-24T13:48:34.700Z,82.42
2024-01-24T13:51:42.644Z,82.70
2024-01-24T13:54:46.808Z,82.95
2024-01-24T13:57:49.712Z,82.65
2024-01-24T14:00:52.745Z,82.88
2024-01-24T14:03:55.609Z,83.01
2024-01-24T14:06:58.032Z,82.71
2024-01-24T14:10:00.588Z,82.40
2024-01-24T14:13:03.411Z,82.26
2024-01-24T14:16:06.942Z,81.99
2024-01-24T14:19:09.360Z,81.55
2024-01-24T14:22:11.896Z,81.58
2024-01-24T14:25:14.166Z,81.29
2024-01-24T14:28:16.875Z,81.38
2024-01-24T14:31:19.090Z,81.80
2024-01-24T14:34:21.620Z,81.36
2024-01-24T14:37:28.983Z,81.50
2024-01-24T14:40:33.493Z,81.61
2024-01-24T14:43:35.678Z,82.28
2024-01-24T14:46:38.092Z,81.95
2024-01-24T14:49:40.282Z,82.75
2024-01-24T14:52:42.794Z,82.29
2024-01-24T14:55:45.136Z,82.38
2024-01-24T14:58:47.505Z,83.59
2024-01-24T15:01:49.933Z,84.46
2024-01-24T15:04:52.567Z,84.75
2024-01-24T15:07:54.871Z,84.78
2024-01-24T15:10:57.407Z,85.64
2024-01-24T15:13:59.700Z,85.23
2024-01-24T15:17:02.238Z,84.81
2024-01-24T15:20:05.268Z,84.36
2024-01-24T15:23:09.027Z,83.64
2024-01-24T15:26:11.373Z,82.81
2024-01-24T15:35:49.196Z,81.67
2024-01-24T15:38:55.868Z,81.59
2024-01-24T15:42:01.438Z,81.51
2024-01-24T15:45:04.407Z,81.41
2024-01-24T15:48:06.931Z,81.35
2024-01-24T15:51:09.562Z,81.26
2024-01-24T15:54:12.045Z,81.24
2024-01-24T15:57:14.497Z,81.11
2024-01-24T16:00:16.896Z,80.94
2024-01-24T16:03:20.851Z,81.00
2024-01-24T16:06:23.476Z,80.94
2024-01-24T16:09:26.412Z,81.20
2024-01-24T16:12:28.667Z,81.40
2024-01-24T16:15:31.177Z,81.46
2024-01-24T16:18:34.330Z,81.31
2024-01-24T16:21:43.114Z,81.35
2024-01-24T16:24:45.831Z,81.09
2024-01-24T16:27:48.297Z,81.13
2024-01-24T16:30:50.577Z,81.10
2024-01-24T16:33:53.093Z,81.41
2024-01-24T16:36:55.307Z,81.22
2024-01-24T16:39:57.836Z,80.96
2024-01-24T16:43:00.053Z,80.81
2024-01-24T16:46:03.686Z,80.95
2024-01-24T16:49:06.005Z,80.69
2024-01-24T16:52:08.589Z,80.40
2024-01-24T16:55:12.300Z,81.84
2024-01-24T16:58:15.704Z,82.62
2024-01-24T17:01:17.924Z,82.50
2024-01-24T17:04:20.490Z,83.47
2024-01-24T17:07:23.220Z,83.15
2024-01-24T17:10:25.667Z,83.91
2024-01-24T17:13:27.723Z,84.56
2024-01-24T17:16:30.310Z,84.42
2024-01-24T17:19:32.581Z,84.01
2024-01-24T17:22:35.193Z,83.91
2024-01-24T17:25:37.270Z,83.84
2024-01-24T17:28:39.710Z,83.55
2024-01-24T17:31:41.819Z,83.31
2024-01-24T17:34:44.495Z,82.86
2024-01-24T17:37:47.339Z,82.86
2024-01-24T17:40:50.118Z,83.29
2024-01-24T17:43:52.506Z,83.30
2024-01-24T17:46:55.083Z,83.81
2024-01-24T17:49:57.316Z,84.18
2024-01-24T17:52:59.940Z,84.57
2024-01-24T17:56:02.036Z,84.79
2024-01-24T17:59:04.683Z,85.21
2024-01-24T18:02:07.276Z,85.50
2024-01-24T18:05:09.970Z,85.89
2024-01-24T18:08:13.040Z,86.02
2024-01-24T18:11:15.854Z,86.28
2024-01-24T18:14:17.978Z,86.73
2024-01-24T18:17:20.497Z,87.51
2024-01-24T18:20:22.701Z,87.08
2024-01-24T18:23:25.152Z,87.04
2024-01-24T18:26:27.296Z,86.97
2024-01-24T18:29:29.694Z,86.99
2024-01-24T18:32:33.244Z,86.90
2024-01-24T18:35:35.784Z,86.76
2024-01-24T18:38:41.011Z,86.91
2024-01-24T18:41:43.534Z,87.20
2024-01-24T18:44:45.845Z,87.02
2024-01-24T18:47:48.595Z,86.51
2024-01-24T18:50:51.162Z,86.57
2024-01-24T18:53:53.584Z,86.03
2024-01-24T18:56:56.019Z,85.89
2024-01-24T18:59:58.760Z,85.35
2024-01-24T19:03:01.105Z,85.57
2024-01-24T19:06:06.619Z,86.14
2024-01-24T19:09:09.388Z,86.24
2024-01-24T19:12:12.016Z,86.54
2024-01-24T19:15:14.138Z,86.64
2024-01-24T19:18:20.468Z,86.64
2024-01-24T19:21:25.144Z,86.91
2024-01-24T19:24:27.677Z,86.88
2024-01-24T19:27:30.042Z,87.00
2024-01-24T19:30:32.579Z,86.58
2024-01-24T19:33:34.929Z,86.31
2024-01-24T19:36:37.980Z,86.23
2024-01-24T19:39:40.139Z,86.30
2024-01-24T19:42:42.669Z,86.37
2024-01-24T19:45:44.919Z,86.40
2024-01-24T19:48:47.428Z,86.46
2024-01-24T19:51:51.903Z,86.58
2024-01-24T19:54:55.608Z,86.35
2024-01-24T19:57:59.088Z,86.32
2024-01-24T20:01:05.433Z,86.16
2024-01-24T20:04:08.041Z,86.28
2024-01-24T20:07:10.349Z,86.34
2024-01-24T20:10:13.292Z,86.42
2024-01-24T20:13:15.904Z,86.49
2024-01-24T20:16:19.023Z,86.50
2024-01-24T20:19:21.207Z,86.62
2024-01-24T20:22:23.588Z,86.31
2024-01-24T20:25:25.840Z,86.27
2024-01-24T20:28:28.256Z,86.20
2024-01-24T20:31:30.429Z,86.12
2024-01-24T20:34:33.276Z,86.22
2024-01-24T20:37:35.492Z,86.11
2024-01-24T20:40:37.899Z,86.09
2024-01-24T20:43:40.692Z,85.93
2024-01-24T20:46:43.345Z,85.93
2024-01-24T20:49:46.051Z,85.85
2024-01-24T20:52:50.730Z,85.75
2024-01-24T20:55:53.445Z,85.79
2024-01-24T20:58:55.857Z,85.73
2024-01-24T21:02:00.328Z,85.85
2024-01-24T21:05:03.831Z,85.96
2024-01-24T21:08:06.884Z,85.96
2024-01-24T21:11:11.697Z,85.84
2024-01-24T21:14:13.815Z,85.67
2024-01-24T21:17:16.389Z,85.62
2024-01-24T21:20:18.818Z,85.39
2024-01-24T21:23:21.390Z,85.05
2024-01-24T21:26:23.469Z,84.93
2024-01-24T21:29:25.897Z,84.94
2024-01-24T21:32:28.203Z,85.01
2024-01-24T21:35:30.713Z,84.97
2024-01-24T21:38:32.994Z,85.01
2024-01-24T21:41:35.840Z,84.89
2024-01-24T21:44:38.008Z,84.70
2024-01-24T21:47:42.119Z,84.22
2024-01-24T21:50:44.960Z,83.90
2024-01-24T21:53:47.921Z,83.58
2024-01-24T21:56:50.770Z,82.86
2024-01-24T21:59:53.302Z,82.25
2024-01-24T22:02:55.427Z,81.72
2024-01-24T22:05:58.069Z,81.18
2024-01-24T22:09:00.486Z,81.09
2024-01-24T22:12:02.922Z,80.36
2024-01-24T22:15:06.108Z,79.93
2024-01-24T22:18:09.378Z,79.33
2024-01-24T22:21:12.764Z,78.92
2024-01-24T22:24:15.224Z,78.29
2024-01-24T22:27:17.396Z,77.36
2024-01-24T22:30:20.106Z,77.04
2024-01-24T22:33:22.988Z,77.11
2024-01-24T22:36:25.509Z,75.99
2024-01-24T22:39:27.713Z,75.36
2024-01-24T22:42:30.311Z,75.21
2024-01-24T22:45:32.468Z,75.11
2024-01-24T22:48:35.128Z,75.85
2024-01-24T22:51:37.801Z,75.22
2024-01-24T22:54:40.296Z,75.02
2024-01-24T22:57:48.074Z,73.75
2024-01-24T23:00:50.580Z,73.38
2024-01-24T23:03:53.378Z,72.91
2024-01-24T23:06:55.810Z,73.04
2024-01-24T23:09:58.286Z,72.74
2024-01-24T23:13:00.927Z,72.36
2024-01-24T23:16:03.097Z,71.87
2024-01-24T23:19:05.629Z,71.69
2024-01-24T23:22:08.039Z,70.79
2024-01-24T23:25:10.548Z,70.67
2024-01-24T23:28:12.699Z,69.74
2024-01-24T23:31:15.342Z,69.45
2024-01-24T23:34:17.628Z,68.49
2024-01-24T23:37:20.425Z,67.41
2024-01-24T23:40:22.889Z,67.35
2024-01-24T23:43:25.721Z,67.63
2024-01-24T23:46:29.151Z,67.34
2024-01-24T23:49:31.927Z,66.54
2024-01-24T23:52:34.280Z,66.17
2024-01-24T23:55:37.787Z,65.29
2024-01-24T23:58:39.878Z,64.46
